1OA8 weather

Erdy Farm Airport
Kilbourne, Ohio, United States

Public forecast

Using degrees Fahrenheit for public forecast. Weather courtesy of forecast.io.

Closest aviation weather report (METAR) to Erdy Farm Airport

Closest report is Delaware Municipal Airport, 10.4 nm (19.3 km) WSW. Retrieved 2020/02/24 02:35 UTC (25 minutes ago):

KDLZ 240235Z AUTO 19005KT 10SM CLR 02/M02 A3003 RMK AO2

Closest aviation forecast (TAF) to Erdy Farm Airport

Closest forecast is John Glenn Columbus International Airport, 20.9 nm (38.8 km) S. Retrieved 2020-02-24 00:39 UTC (2 hours ago):

TAF KCMH 232336Z 2400/2424 19006KT P6SM SCT070 TEMPO 2400/2401 BKN070 FM241200 18004KT P6SM BKN045 FM241400 18006KT P6SM VCSH OVC021 FM241800 16007KT 4SM -RA BR OVC006 FM242100 15008KT P6SM VCSH OVC012